USPPUWKE

Guest
Details From USPP - BOLSHOYE SAVINO
To UWKE - BEGISHEVO
Flight Number -
Tags generated
Created
Modified
Stats Distance 194 nm / 360 km
Max Altitude 18,000 ft / 5,486 m
Waypoints 3
Social Downloads 0
Likes 0
Share VATSIM

Download

Looking for another format? Having issues loading an existing format? Contact us
Advertisement - Login to hide

Notes

Basic altitude profile: - Ascent Rate: 2500ft/min - Ascent Speed: 250kts - Cruise Altitude: 35000ft - Cruise Speed: 420kts - Descent Rate: 1500ft/min - Descent Speed: 250kts

Route

USPP G712 USII UWKE

ID Type Via Altitude Latitude Longitude Leg Dist Tot Dist Heading (true) Name
O USPP APT - 0 ft / 0 m 57.91452˚ 56.02121˚ - 0 nm - BOLSHOYE SAVINO
USII APT G712 (AWY-LO) 18,000 ft / 5,486 m 56.83333˚ 53.45667˚ 105 nm 105 nm 233° / 231° -
O UWKE APT - 0 ft / 0 m 55.56376˚ 52.08979˚ 88 nm 194 nm 211° / 210° BEGISHEVO

Altitude Profile

Advertisement - Login to hide

Weather


0- 5 10 15 20 25 30 35+ Temperature / ° C

Clouds and Precipitation
Forecast for 2017-12-11 12:00 UTC. Updated 39 minutes ago

Ground ~20,000 ft ~40,000 ft Winds

USPP

Details ICAO USPP (PEE)
Name BOLSHOYE SAVINO
Region Russia
Timezone Asia/Yekaterinburg (UTC+5.0)
Stats Elevation 404 ft / 123 m (AMSL)
Location 57.914517° 56.021214°
Runways 1
Magnetic Variation 15.587° E

METAR

USPP 111130Z VRB01MPS 3700 BR FU FEW001 M19/M22 Q1032 R03/090060 NOSIG RMK QBB050 QFE763

Decode

TAF

TAF USPP 111100Z 1112/1212 17003MPS 3100 FU BR SCT011 TEMPO 1112/1115 1100 BR FU SCT002

Decode

Departure Runways

ID Width Length Bearing (true) Bearing (mag) Surface Threshold Offset Overrun Length
03 161 ft / 49 m 10,493 ft / 3,198 m 45.91° 30.32° Concrete 0 ft / 0 m 165 ft / 50 m
21 161 ft / 49 m 10,493 ft / 3,198 m 225.95° 210.36° Concrete 0 ft / 0 m 155 ft / 47 m

UWKE

Details ICAO UWKE (NBC)
Name BEGISHEVO
Region Russia
Timezone Europe/Moscow (UTC+3.0)
Stats Elevation 643 ft / 196 m (AMSL)
Location 55.563755° 52.089791°
Runways 2
Magnetic Variation 13.598° E

METAR

UWKE 111130Z 00000MPS 8000 BKN003 M16/M17 Q1027 R21/420560 NOSIG RMK OBST OBSC QFE753/1005

Decode

TAF

TAF UWKE 111045Z 1112/1212 15003G09MPS 3100 -SN BR OVC004 TEMPO 1112/1118 VRB01MPS 0500 FZFG VV002 TEMPO 1118/1209 17006G12MPS 1000 SHSNRA BKN003 BKN015CB

Decode

Destination Runways

ID Width Length Bearing (true) Bearing (mag) Surface Threshold Offset Overrun Length
03 190 ft / 58 m 5,609 ft / 1,710 m 47.09° 33.49° Grass 0 ft / 0 m 0 ft / 0 m
04 138 ft / 42 m 8,149 ft / 2,484 m 46.89° 33.29° Asphalt 0 ft / 0 m 170 ft / 52 m
21 190 ft / 58 m 5,609 ft / 1,710 m 227.11° 213.51° Grass 0 ft / 0 m 0 ft / 0 m
22 138 ft / 42 m 8,149 ft / 2,484 m 226.91° 213.31° Asphalt 0 ft / 0 m 190 ft / 58 m

Approach Navaids

Runway Type Ident Frequency Range Bearing (true) Bearing (mag) Slope Elevation
22 Localiser INK 109.90 MHz 18 nm / 33 km 226.51° 212.91° - 643 ft / 196 m (AMSL)
22 Glidescope INK 109.90 MHz 10 nm / 19 km 226.90° 213.30° 2.70° 643 ft / 196 m (AMSL)